createdAt,value
2017-12-03T00:00:27.776Z,-0.50
2017-12-03T00:02:55.295Z,-0.50
2017-12-03T00:05:23.599Z,-0.40
2017-12-03T00:07:51.171Z,-0.50
2017-12-03T00:10:19.014Z,-0.40
2017-12-03T00:12:47.398Z,-0.30
2017-12-03T00:15:14.982Z,-0.40
2017-12-03T00:17:42.504Z,-0.40
2017-12-03T00:20:10.856Z,-0.30
2017-12-03T00:22:38.382Z,-0.40
2017-12-03T00:25:06.050Z,-0.30
2017-12-03T00:27:33.562Z,-0.30
2017-12-03T00:30:01.883Z,-0.30
2017-12-03T00:32:29.534Z,-0.30
2017-12-03T00:34:57.106Z,-0.20
2017-12-03T00:37:24.670Z,-0.20
2017-12-03T00:39:52.199Z,-0.20
2017-12-03T00:42:20.611Z,-0.20
2017-12-03T00:44:48.172Z,-0.20
2017-12-03T00:47:15.827Z,-0.20
2017-12-03T00:49:43.346Z,-0.10
2017-12-03T00:52:10.930Z,-0.10
2017-12-03T00:54:39.312Z,-0.10
2017-12-03T00:57:06.886Z,-0.10
2017-12-03T00:59:34.407Z,-0.10
2017-12-03T01:02:02.098Z,0.00
2017-12-03T01:04:29.664Z,0.00
2017-12-03T01:06:57.226Z,0.00
2017-12-03T01:09:24.750Z,0.00
2017-12-03T01:11:52.341Z,0.00
2017-12-03T01:14:19.854Z,0.00
2017-12-03T01:16:47.470Z,0.10
2017-12-03T01:19:15.024Z,0.10
2017-12-03T01:21:42.562Z,0.20
2017-12-03T01:24:10.838Z,0.20
2017-12-03T01:26:39.126Z,0.20
2017-12-03T01:29:07.398Z,0.20
2017-12-03T01:31:36.192Z,0.30
2017-12-03T01:34:03.744Z,0.20
2017-12-03T01:36:32.044Z,0.30
2017-12-03T01:38:59.909Z,0.30
2017-12-03T01:41:28.613Z,0.30
2017-12-03T01:43:56.162Z,0.30
2017-12-03T01:46:23.682Z,0.40
2017-12-03T01:48:51.681Z,0.30
2017-12-03T01:51:19.318Z,0.40
2017-12-03T01:53:47.980Z,0.40
2017-12-03T01:56:15.947Z,0.40
2017-12-03T01:58:43.685Z,0.40
2017-12-03T02:01:12.276Z,0.40
2017-12-03T02:03:39.950Z,0.40
2017-12-03T02:06:08.025Z,0.40
2017-12-03T02:08:36.721Z,0.40
2017-12-03T02:11:04.782Z,0.40
2017-12-03T02:13:32.387Z,0.40
2017-12-03T02:16:00.700Z,0.40
2017-12-03T02:18:28.631Z,0.40
2017-12-03T02:20:57.086Z,0.40
2017-12-03T02:23:24.617Z,0.40
2017-12-03T02:25:52.274Z,0.40
2017-12-03T02:28:19.798Z,0.40
2017-12-03T02:30:48.209Z,0.40
2017-12-03T02:33:15.767Z,0.40
2017-12-03T02:35:43.298Z,0.40
2017-12-03T02:38:10.815Z,0.40
2017-12-03T02:40:38.502Z,0.40
2017-12-03T02:43:06.157Z,0.40
2017-12-03T02:45:34.015Z,0.40
2017-12-03T02:48:01.600Z,0.40
2017-12-03T02:50:29.218Z,0.40
2017-12-03T02:52:56.760Z,0.40
2017-12-03T02:55:25.169Z,0.40
2017-12-03T02:57:52.694Z,0.40
2017-12-03T03:00:20.972Z,0.40
2017-12-03T03:02:49.280Z,0.40
2017-12-03T03:05:16.819Z,0.40
2017-12-03T03:07:44.342Z,0.40
2017-12-03T03:10:11.846Z,0.40
2017-12-03T03:12:39.376Z,0.40
2017-12-03T03:15:07.658Z,0.40
2017-12-03T03:17:35.949Z,0.30
2017-12-03T03:20:03.460Z,0.30
2017-12-03T03:22:31.078Z,0.30
2017-12-03T03:24:58.594Z,0.40
2017-12-03T03:27:26.126Z,0.30
2017-12-03T03:29:53.663Z,0.40
2017-12-03T03:32:21.202Z,0.40
2017-12-03T03:34:49.499Z,0.30
2017-12-03T03:37:17.037Z,0.30
2017-12-03T03:39:45.339Z,0.30
2017-12-03T03:42:12.900Z,0.30
2017-12-03T03:44:40.411Z,0.30
2017-12-03T03:47:07.922Z,0.30
2017-12-03T03:49:35.454Z,0.30
2017-12-03T03:52:03.755Z,0.30
2017-12-03T03:54:31.288Z,0.30
2017-12-03T03:56:59.562Z,0.30
2017-12-03T03:59:27.868Z,0.30
2017-12-03T04:01:55.422Z,0.30
2017-12-03T04:04:22.951Z,0.30
2017-12-03T04:06:50.472Z,0.30
2017-12-03T04:09:18.002Z,0.30
2017-12-03T04:11:45.562Z,0.30
2017-12-03T04:14:13.130Z,0.30
2017-12-03T04:16:40.635Z,0.30
2017-12-03T04:19:08.246Z,0.30
2017-12-03T04:21:35.771Z,0.30
2017-12-03T04:24:03.288Z,0.30
2017-12-03T04:26:30.826Z,0.30
2017-12-03T04:28:58.382Z,0.30
2017-12-03T04:31:25.908Z,0.40
2017-12-03T04:33:53.441Z,0.30
2017-12-03T04:36:20.970Z,0.30
2017-12-03T04:38:48.481Z,0.30
2017-12-03T04:41:16.094Z,0.30
2017-12-03T04:43:43.653Z,0.30
2017-12-03T04:46:11.189Z,0.30
2017-12-03T04:48:39.482Z,0.30
2017-12-03T04:51:07.019Z,0.30
2017-12-03T04:53:35.294Z,0.30
2017-12-03T04:56:03.598Z,0.30
2017-12-03T04:58:31.122Z,0.30
2017-12-03T05:00:58.638Z,0.30
2017-12-03T05:03:26.174Z,0.30
2017-12-03T05:05:53.683Z,0.30
2017-12-03T05:08:21.213Z,0.30
2017-12-03T05:10:48.726Z,0.30
2017-12-03T05:13:16.323Z,0.30
2017-12-03T05:15:43.837Z,0.30
2017-12-03T05:18:11.365Z,0.30
2017-12-03T05:20:38.873Z,0.30
2017-12-03T05:23:07.192Z,0.30
2017-12-03T05:25:34.705Z,0.30
2017-12-03T05:28:02.309Z,0.30
2017-12-03T05:30:29.842Z,0.30
2017-12-03T05:32:58.155Z,0.30
2017-12-03T05:35:28.614Z,0.30
2017-12-03T05:37:56.217Z,0.30
2017-12-03T05:40:23.750Z,0.30
2017-12-03T05:42:51.267Z,0.30
2017-12-03T05:45:18.806Z,0.30
2017-12-03T05:47:46.314Z,0.30
2017-12-03T05:50:13.858Z,0.30
2017-12-03T05:52:41.383Z,0.30
2017-12-03T05:55:08.950Z,0.30
2017-12-03T05:57:36.485Z,0.40
2017-12-03T06:00:04.779Z,0.40
2017-12-03T06:02:33.078Z,0.40
2017-12-03T06:05:00.611Z,0.40
2017-12-03T06:07:28.888Z,0.30
2017-12-03T06:09:57.173Z,0.40
2017-12-03T06:12:24.690Z,0.30
2017-12-03T06:14:52.208Z,0.40
2017-12-03T06:17:19.710Z,0.40
2017-12-03T06:19:47.250Z,0.30
2017-12-03T06:22:14.762Z,0.40
2017-12-03T06:24:43.076Z,0.30
2017-12-03T06:27:10.603Z,0.30
2017-12-03T06:29:38.877Z,0.30
2017-12-03T06:32:07.168Z,0.40
2017-12-03T06:34:35.442Z,0.30
2017-12-03T06:37:03.017Z,0.30
2017-12-03T06:39:30.623Z,0.30
2017-12-03T06:41:58.246Z,0.40
2017-12-03T06:44:25.795Z,0.30
2017-12-03T06:46:53.363Z,0.40
2017-12-03T06:49:20.876Z,0.40
2017-12-03T06:51:48.407Z,0.40
2017-12-03T06:54:15.946Z,0.40
2017-12-03T06:56:43.495Z,0.40
2017-12-03T06:59:10.999Z,0.40
2017-12-03T07:01:38.532Z,0.40
2017-12-03T07:04:06.037Z,0.40
2017-12-03T07:06:33.631Z,0.40
2017-12-03T07:09:01.200Z,0.40
2017-12-03T07:11:28.754Z,0.40
2017-12-03T07:13:56.321Z,0.40
2017-12-03T07:16:23.856Z,0.40
2017-12-03T07:18:52.135Z,0.40
2017-12-03T07:21:20.443Z,0.40
2017-12-03T07:23:47.952Z,0.40
2017-12-03T07:26:15.551Z,0.40
2017-12-03T07:28:43.076Z,0.40
2017-12-03T07:31:10.672Z,0.50
2017-12-03T07:33:38.199Z,0.50
2017-12-03T07:36:05.702Z,0.50
2017-12-03T07:38:33.227Z,0.50
2017-12-03T07:41:01.546Z,0.50
2017-12-03T07:43:29.074Z,0.50
2017-12-03T07:45:57.453Z,0.50
2017-12-03T07:48:26.168Z,0.50
2017-12-03T07:50:53.679Z,0.50
2017-12-03T07:53:21.220Z,0.50
2017-12-03T07:55:48.732Z,0.50
2017-12-03T07:58:16.355Z,0.50
2017-12-03T08:00:44.702Z,0.60
2017-12-03T08:03:12.241Z,0.60
2017-12-03T08:05:39.772Z,0.60
2017-12-03T08:08:08.051Z,0.60
2017-12-03T08:10:36.358Z,0.60
2017-12-03T08:13:03.958Z,0.60
2017-12-03T08:15:31.747Z,0.70
2017-12-03T08:17:59.987Z,0.70
2017-12-03T08:20:27.519Z,0.70
2017-12-03T08:22:55.027Z,0.70
2017-12-03T08:25:22.559Z,0.70
2017-12-03T08:27:50.093Z,0.80
2017-12-03T08:30:17.650Z,0.80
2017-12-03T08:32:46.034Z,0.80
2017-12-03T08:35:13.599Z,0.80
2017-12-03T08:37:41.106Z,0.80
2017-12-03T08:40:08.639Z,0.80
2017-12-03T08:42:36.195Z,0.80
2017-12-03T08:45:03.737Z,0.90
2017-12-03T08:47:31.310Z,0.90
2017-12-03T08:49:58.841Z,0.90
2017-12-03T08:52:27.139Z,1.00
2017-12-03T08:54:54.653Z,1.00
2017-12-03T08:57:22.268Z,1.00
2017-12-03T08:59:49.823Z,1.00
2017-12-03T09:02:17.345Z,1.10
2017-12-03T09:04:44.862Z,1.10
2017-12-03T09:07:12.412Z,1.10
2017-12-03T09:09:39.954Z,1.10
2017-12-03T09:12:07.495Z,1.00
2017-12-03T09:14:35.794Z,1.10
2017-12-03T09:17:03.325Z,1.10
2017-12-03T09:19:31.599Z,1.10
2017-12-03T09:21:59.190Z,1.10
2017-12-03T09:24:27.466Z,1.20
2017-12-03T09:26:54.998Z,1.20
2017-12-03T09:29:22.513Z,1.20
2017-12-03T09:31:50.035Z,1.20
2017-12-03T09:34:18.317Z,1.20
2017-12-03T09:36:46.678Z,1.30
2017-12-03T09:39:14.985Z,1.30
2017-12-03T09:41:42.542Z,1.30
2017-12-03T09:44:10.055Z,1.30
2017-12-03T09:46:37.585Z,1.30
2017-12-03T09:49:05.129Z,1.30
2017-12-03T09:51:32.683Z,1.40
2017-12-03T09:54:00.251Z,1.40
2017-12-03T09:56:27.761Z,1.30
2017-12-03T09:58:55.286Z,1.30
2017-12-03T10:01:22.801Z,1.30
2017-12-03T10:03:51.093Z,1.40
2017-12-03T10:06:19.374Z,1.40
2017-12-03T10:08:46.903Z,1.40
2017-12-03T10:11:14.504Z,1.40
2017-12-03T10:13:42.060Z,1.40
2017-12-03T10:16:09.647Z,1.40
2017-12-03T10:18:37.186Z,1.40
2017-12-03T10:21:04.765Z,1.40
2017-12-03T10:23:32.294Z,1.40
2017-12-03T10:25:59.895Z,1.50
2017-12-03T10:28:27.530Z,1.50
2017-12-03T10:30:55.087Z,1.60
2017-12-03T10:33:22.656Z,1.60
2017-12-03T10:35:50.224Z,1.50
2017-12-03T10:38:20.650Z,1.60
2017-12-03T10:40:48.179Z,1.60
2017-12-03T10:43:16.477Z,1.70
2017-12-03T10:45:44.041Z,1.70
2017-12-03T10:48:11.598Z,1.70
2017-12-03T10:50:39.129Z,1.60
2017-12-03T10:53:07.443Z,1.60
2017-12-03T10:55:34.978Z,1.60
2017-12-03T10:58:03.276Z,1.70
2017-12-03T11:00:30.815Z,1.70
2017-12-03T11:02:59.125Z,1.70
2017-12-03T11:05:26.692Z,1.70
2017-12-03T11:07:54.238Z,1.80
2017-12-03T11:10:21.803Z,1.80
2017-12-03T11:12:49.381Z,1.70
2017-12-03T11:15:16.958Z,1.70
2017-12-03T11:17:44.582Z,1.70
2017-12-03T11:20:12.122Z,1.80
2017-12-03T11:22:39.719Z,1.80
2017-12-03T11:25:07.248Z,1.80
2017-12-03T11:27:34.829Z,1.90
2017-12-03T11:30:02.432Z,1.90
2017-12-03T11:32:30.016Z,1.90
2017-12-03T11:34:58.315Z,1.90
2017-12-03T11:37:25.858Z,1.90
2017-12-03T11:39:54.164Z,1.80
2017-12-03T11:42:21.718Z,1.70
2017-12-03T11:44:49.228Z,1.80
2017-12-03T11:47:16.859Z,1.70
2017-12-03T11:49:44.380Z,1.80
2017-12-03T11:52:12.679Z,1.80
2017-12-03T11:54:40.371Z,1.70
2017-12-03T11:57:08.025Z,1.70
2017-12-03T11:59:35.697Z,1.80
2017-12-03T12:02:03.243Z,1.70
2017-12-03T12:04:30.798Z,1.70
2017-12-03T12:06:58.359Z,1.70
2017-12-03T12:09:25.907Z,1.70
2017-12-03T12:11:53.431Z,1.70
2017-12-03T12:14:21.031Z,1.60
2017-12-03T12:16:48.553Z,1.70
2017-12-03T12:19:16.103Z,1.60
2017-12-03T12:21:43.728Z,1.70
2017-12-03T12:24:11.276Z,1.70
2017-12-03T12:26:38.795Z,1.80
2017-12-03T12:29:06.336Z,1.80
2017-12-03T12:31:33.856Z,1.80
2017-12-03T12:34:01.402Z,1.90
2017-12-03T12:36:29.685Z,1.90
2017-12-03T12:38:57.203Z,1.90
2017-12-03T12:41:26.246Z,1.90
2017-12-03T12:43:53.766Z,1.90
2017-12-03T12:46:21.373Z,1.90
2017-12-03T12:48:48.935Z,1.90
2017-12-03T12:51:16.513Z,1.90
2017-12-03T12:53:44.051Z,1.90
2017-12-03T12:56:11.579Z,1.90
2017-12-03T12:58:39.097Z,1.80
2017-12-03T13:01:06.735Z,1.80
2017-12-03T13:03:34.256Z,1.90
2017-12-03T13:06:01.763Z,1.90
2017-12-03T13:08:29.286Z,1.80
2017-12-03T13:10:57.578Z,1.90
2017-12-03T13:13:25.862Z,1.90
2017-12-03T13:15:53.385Z,1.90
2017-12-03T13:18:22.431Z,1.90
2017-12-03T13:20:49.995Z,1.90
2017-12-03T13:23:17.512Z,1.90
2017-12-03T13:25:45.795Z,1.80
2017-12-03T13:28:14.210Z,1.80
2017-12-03T13:30:41.782Z,1.80
2017-12-03T13:33:09.318Z,1.80
2017-12-03T13:35:36.834Z,1.80
2017-12-03T13:38:04.365Z,1.80
2017-12-03T13:40:31.886Z,1.80
2017-12-03T13:43:00.183Z,1.80
2017-12-03T13:45:27.695Z,1.80
2017-12-03T13:47:55.215Z,1.80
2017-12-03T13:50:22.726Z,1.80
2017-12-03T13:52:51.025Z,1.80
2017-12-03T13:55:19.328Z,1.80
2017-12-03T13:57:46.887Z,1.70
2017-12-03T14:00:14.446Z,1.80
2017-12-03T14:02:41.970Z,1.80
2017-12-03T14:05:10.250Z,1.80
2017-12-03T14:07:38.542Z,1.80
2017-12-03T14:10:06.061Z,1.80
2017-12-03T14:12:33.617Z,1.90
2017-12-03T14:15:01.134Z,1.80
2017-12-03T14:17:28.692Z,1.80
2017-12-03T14:19:56.226Z,1.80
2017-12-03T14:22:24.587Z,1.80
2017-12-03T14:24:52.152Z,1.80
2017-12-03T14:27:19.683Z,1.80
2017-12-03T14:29:47.198Z,1.70
2017-12-03T14:32:14.743Z,1.70
2017-12-03T14:34:43.041Z,1.70
2017-12-03T14:37:10.558Z,1.70
2017-12-03T14:39:38.167Z,1.70
2017-12-03T14:42:05.690Z,1.70
2017-12-03T14:44:34.006Z,1.70
2017-12-03T14:47:01.523Z,1.70
2017-12-03T14:49:29.057Z,1.70
2017-12-03T14:51:56.587Z,1.70
2017-12-03T14:54:24.122Z,1.70
2017-12-03T14:56:52.419Z,1.70
2017-12-03T14:59:19.934Z,1.70
2017-12-03T15:01:47.533Z,1.70
2017-12-03T15:04:15.831Z,1.70
2017-12-03T15:06:43.388Z,1.70
2017-12-03T15:09:10.910Z,1.70
2017-12-03T15:11:38.498Z,1.70
2017-12-03T15:14:06.077Z,1.70
2017-12-03T15:16:33.607Z,1.80
2017-12-03T15:19:01.906Z,1.70
2017-12-03T15:21:29.430Z,1.70
2017-12-03T15:23:57.020Z,1.80
2017-12-03T15:26:24.559Z,1.80
2017-12-03T15:28:52.833Z,1.70
2017-12-03T15:31:20.431Z,1.70
2017-12-03T15:33:47.994Z,1.80
2017-12-03T15:36:15.547Z,1.80
2017-12-03T15:38:43.085Z,1.80
2017-12-03T15:41:11.478Z,1.70
2017-12-03T15:43:39.054Z,1.70
2017-12-03T15:46:06.646Z,1.70
2017-12-03T15:48:34.174Z,1.70
2017-12-03T15:51:01.736Z,1.70
2017-12-03T15:53:29.299Z,1.70
2017-12-03T15:55:56.867Z,1.70
2017-12-03T15:58:24.402Z,1.70
2017-12-03T16:00:51.925Z,1.70
2017-12-03T16:03:19.528Z,1.70
2017-12-03T16:05:47.110Z,1.70
2017-12-03T16:08:14.656Z,1.70
2017-12-03T16:10:42.225Z,1.70
2017-12-03T16:13:09.877Z,1.70
2017-12-03T16:15:37.390Z,1.80
2017-12-03T16:18:04.910Z,1.80
2017-12-03T16:20:32.466Z,1.80
2017-12-03T16:22:59.983Z,1.80
2017-12-03T16:25:27.523Z,1.80
2017-12-03T16:27:55.135Z,1.80
2017-12-03T16:30:22.670Z,1.80
2017-12-03T16:32:50.967Z,1.80
2017-12-03T16:35:18.529Z,1.80
2017-12-03T16:37:46.107Z,1.80
2017-12-03T16:40:13.640Z,1.80
2017-12-03T16:42:41.924Z,1.80
2017-12-03T16:45:10.314Z,1.80
2017-12-03T16:47:37.831Z,1.80
2017-12-03T16:50:05.433Z,1.90
2017-12-03T16:52:33.008Z,1.90
2017-12-03T16:55:01.066Z,1.90
2017-12-03T16:57:28.591Z,1.90
2017-12-03T16:59:56.203Z,1.90
2017-12-03T17:02:23.718Z,1.90
2017-12-03T17:04:51.310Z,1.90
2017-12-03T17:07:18.882Z,1.90
2017-12-03T17:09:46.435Z,1.90
2017-12-03T17:12:13.938Z,1.90
2017-12-03T17:14:41.450Z,1.90
2017-12-03T17:17:08.986Z,1.90
2017-12-03T17:19:37.296Z,1.90
2017-12-03T17:22:04.897Z,1.90
2017-12-03T17:24:32.440Z,1.90
2017-12-03T17:26:59.972Z,2.00
2017-12-03T17:29:27.514Z,2.00
2017-12-03T17:31:55.919Z,2.00
2017-12-03T17:34:23.487Z,1.90
2017-12-03T17:36:51.023Z,1.90
2017-12-03T17:39:18.538Z,1.90
2017-12-03T17:41:46.177Z,2.00
2017-12-03T17:44:13.799Z,2.00
2017-12-03T17:46:42.195Z,2.00
2017-12-03T17:49:10.582Z,2.00
2017-12-03T17:51:38.907Z,2.00
2017-12-03T17:54:06.550Z,2.00
2017-12-03T17:56:34.106Z,2.00
2017-12-03T17:59:01.621Z,2.00
2017-12-03T18:01:29.947Z,2.00
2017-12-03T18:03:57.499Z,2.00
2017-12-03T18:06:25.069Z,2.00
2017-12-03T18:08:52.588Z,2.00
2017-12-03T18:11:20.143Z,2.10
2017-12-03T18:13:47.727Z,2.10
2017-12-03T18:16:16.038Z,2.00
2017-12-03T18:18:43.567Z,2.00
2017-12-03T18:21:11.081Z,2.10
2017-12-03T18:23:38.617Z,2.10
2017-12-03T18:26:06.246Z,2.10
2017-12-03T18:28:33.807Z,2.10
2017-12-03T18:31:01.349Z,2.10
2017-12-03T18:33:28.931Z,2.10
2017-12-03T18:35:56.507Z,2.20
2017-12-03T18:38:24.066Z,2.20
2017-12-03T18:40:51.601Z,2.20
2017-12-03T18:43:19.177Z,2.20
2017-12-03T18:45:46.739Z,2.20
2017-12-03T18:48:14.245Z,2.20
2017-12-03T18:50:43.274Z,2.20
2017-12-03T18:53:10.790Z,2.20
2017-12-03T18:55:38.440Z,2.20
2017-12-03T18:58:05.958Z,2.20
2017-12-03T19:00:33.498Z,2.20
2017-12-03T19:03:01.774Z,2.30
2017-12-03T19:05:31.610Z,2.30
2017-12-03T19:07:59.176Z,2.30
2017-12-03T19:10:26.735Z,2.30
2017-12-03T19:12:54.298Z,2.30
2017-12-03T19:15:21.856Z,2.30
2017-12-03T19:17:49.533Z,2.30
2017-12-03T19:20:17.074Z,2.30
2017-12-03T19:22:44.597Z,2.30
2017-12-03T19:25:12.137Z,2.30
2017-12-03T19:27:39.771Z,2.40
2017-12-03T19:30:07.333Z,2.40
2017-12-03T19:32:34.906Z,2.30
2017-12-03T19:35:02.542Z,2.40
2017-12-03T19:37:30.124Z,2.40
2017-12-03T19:39:57.653Z,2.40
2017-12-03T19:42:25.236Z,2.40
2017-12-03T19:44:52.758Z,2.40
2017-12-03T19:47:21.066Z,2.40
2017-12-03T19:49:48.583Z,2.40
2017-12-03T19:52:16.123Z,2.50
2017-12-03T19:54:43.645Z,2.50
2017-12-03T19:57:11.188Z,2.50
2017-12-03T19:59:39.476Z,2.50
2017-12-03T20:02:07.043Z,2.50
2017-12-03T20:04:34.607Z,2.50
2017-12-03T20:07:02.181Z,2.50
2017-12-03T20:09:29.697Z,2.50
2017-12-03T20:11:58.008Z,2.60
2017-12-03T20:14:25.531Z,2.60
2017-12-03T20:16:53.843Z,2.60
2017-12-03T20:19:21.442Z,2.60
2017-12-03T20:21:49.067Z,2.60
2017-12-03T20:24:16.586Z,2.60
2017-12-03T20:26:44.907Z,2.60
2017-12-03T20:29:12.439Z,2.60
2017-12-03T20:31:40.733Z,2.70
2017-12-03T20:34:08.246Z,2.70
2017-12-03T20:36:35.868Z,2.70
2017-12-03T20:39:03.443Z,2.70
2017-12-03T20:41:31.018Z,2.70
2017-12-03T20:43:58.531Z,2.70
2017-12-03T20:46:26.061Z,2.70
2017-12-03T20:48:55.088Z,2.70
2017-12-03T20:51:22.662Z,2.70
2017-12-03T20:53:50.335Z,2.70
2017-12-03T20:56:17.879Z,2.80
2017-12-03T20:58:45.546Z,2.80
2017-12-03T21:01:13.062Z,2.80
2017-12-03T21:03:40.595Z,2.80
2017-12-03T21:06:08.130Z,2.80
2017-12-03T21:08:35.689Z,2.80
2017-12-03T21:11:03.253Z,2.90
2017-12-03T21:13:30.908Z,2.90
2017-12-03T21:15:58.427Z,2.90
2017-12-03T21:18:26.044Z,2.90
2017-12-03T21:20:53.594Z,2.90
2017-12-03T21:23:21.121Z,2.90
2017-12-03T21:25:49.422Z,2.90
2017-12-03T21:28:17.106Z,2.90
2017-12-03T21:30:44.694Z,2.90
2017-12-03T21:33:12.238Z,2.90
2017-12-03T21:35:39.771Z,2.90
2017-12-03T21:38:07.368Z,3.00
2017-12-03T21:40:34.891Z,3.00
2017-12-03T21:43:03.194Z,3.00
2017-12-03T21:45:30.724Z,3.00
2017-12-03T21:47:58.263Z,2.90
2017-12-03T21:50:26.556Z,3.00
2017-12-03T21:52:54.955Z,3.00
2017-12-03T21:55:22.623Z,3.00
2017-12-03T21:57:50.188Z,3.00
2017-12-03T22:00:17.698Z,3.00
2017-12-03T22:02:45.319Z,3.00
2017-12-03T22:05:12.839Z,3.10
2017-12-03T22:07:41.126Z,3.00
2017-12-03T22:10:08.638Z,3.00
2017-12-03T22:12:36.167Z,3.10
2017-12-03T22:15:03.697Z,3.10
2017-12-03T22:17:31.334Z,3.20
2017-12-03T22:19:59.615Z,3.20
2017-12-03T22:22:27.232Z,3.20
2017-12-03T22:24:54.776Z,3.30
2017-12-03T22:27:22.292Z,3.30
2017-12-03T22:29:49.830Z,3.30
2017-12-03T22:32:17.370Z,3.30
2017-12-03T22:34:44.914Z,3.30
2017-12-03T22:37:12.483Z,3.40
2017-12-03T22:39:40.037Z,3.40
2017-12-03T22:42:07.607Z,3.40
2017-12-03T22:44:35.147Z,3.40
2017-12-03T22:47:02.670Z,3.40
2017-12-03T22:49:30.293Z,3.40
2017-12-03T22:51:57.819Z,3.40
2017-12-03T22:54:26.128Z,3.50
2017-12-03T22:56:53.683Z,3.50
2017-12-03T22:59:21.234Z,3.50
2017-12-03T23:01:48.747Z,3.50
2017-12-03T23:04:16.278Z,3.50
2017-12-03T23:06:43.795Z,3.50
2017-12-03T23:09:12.093Z,3.50
2017-12-03T23:11:39.606Z,3.50
2017-12-03T23:14:08.654Z,3.50
2017-12-03T23:16:36.197Z,3.50
2017-12-03T23:19:04.473Z,3.50
2017-12-03T23:21:32.770Z,3.60
2017-12-03T23:24:00.283Z,3.60
2017-12-03T23:26:27.801Z,3.60
2017-12-03T23:28:55.308Z,3.60
2017-12-03T23:31:22.910Z,3.60
2017-12-03T23:33:50.451Z,3.60
2017-12-03T23:36:18.747Z,3.70
2017-12-03T23:38:46.263Z,3.60
2017-12-03T23:41:13.802Z,3.70
2017-12-03T23:43:41.326Z,3.60
2017-12-03T23:46:08.858Z,3.70
2017-12-03T23:48:37.172Z,3.70
2017-12-03T23:51:04.745Z,3.70
2017-12-03T23:53:32.245Z,3.70
2017-12-03T23:56:00.549Z,3.80
2017-12-03T23:58:28.081Z,3.80
